createdAt,value
2018-11-22T00:02:35.690Z,3.10
2018-11-22T00:05:17.296Z,3.20
2018-11-22T00:07:59.848Z,3.10
2018-11-22T00:10:40.925Z,3.10
2018-11-22T00:13:21.856Z,3.10
2018-11-22T00:16:03.187Z,3.20
2018-11-22T00:18:44.081Z,3.20
2018-11-22T00:21:25.370Z,3.20
2018-11-22T00:24:06.695Z,3.20
2018-11-22T00:26:47.871Z,3.20
2018-11-22T00:29:29.209Z,3.10
2018-11-22T00:32:10.624Z,3.20
2018-11-22T00:34:51.457Z,3.20
2018-11-22T00:37:32.461Z,3.20
2018-11-22T00:40:14.446Z,3.10
2018-11-22T00:42:55.178Z,3.20
2018-11-22T00:45:36.498Z,3.10
2018-11-22T00:48:17.885Z,3.20
2018-11-22T00:50:59.102Z,3.20
2018-11-22T00:53:40.091Z,3.30
2018-11-22T00:56:21.068Z,3.30
2018-11-22T00:59:01.842Z,3.20
2018-11-22T01:01:43.073Z,3.20
2018-11-22T01:04:24.187Z,3.20
2018-11-22T01:07:05.491Z,3.20
2018-11-22T01:09:46.705Z,3.20
2018-11-22T01:12:27.872Z,3.30
2018-11-22T01:15:09.395Z,3.20
2018-11-22T01:17:50.606Z,3.30
2018-11-22T01:20:31.945Z,3.30
2018-11-22T01:23:12.522Z,3.30
2018-11-22T01:25:53.703Z,3.30
2018-11-22T01:28:35.128Z,3.20
2018-11-22T01:31:16.432Z,3.20
2018-11-22T01:33:57.045Z,3.20
2018-11-22T01:36:38.472Z,3.20
2018-11-22T01:39:19.845Z,3.20
2018-11-22T01:42:01.350Z,3.10
2018-11-22T01:44:42.636Z,3.20
2018-11-22T01:47:23.965Z,3.20
2018-11-22T01:50:05.355Z,3.30
2018-11-22T01:52:46.334Z,3.30
2018-11-22T01:55:27.475Z,3.30
2018-11-22T01:58:08.881Z,3.30
2018-11-22T02:00:50.038Z,3.30
2018-11-22T02:03:30.586Z,3.30
2018-11-22T02:06:11.866Z,3.30
2018-11-22T02:08:53.082Z,3.30
2018-11-22T02:11:34.533Z,3.40
2018-11-22T02:14:15.828Z,3.40
2018-11-22T02:16:57.365Z,3.30
2018-11-22T02:19:37.897Z,3.30
2018-11-22T02:22:19.246Z,3.30
2018-11-22T02:25:00.149Z,3.30
2018-11-22T02:27:41.590Z,3.40
2018-11-22T02:30:23.778Z,3.40
2018-11-22T02:33:04.259Z,3.50
2018-11-22T02:35:45.355Z,3.50
2018-11-22T02:38:26.341Z,3.50
2018-11-22T02:41:07.354Z,3.50
2018-11-22T02:43:48.375Z,3.50
2018-11-22T02:46:29.315Z,3.50
2018-11-22T02:49:10.604Z,3.50
2018-11-22T02:51:51.810Z,3.50
2018-11-22T02:54:33.114Z,3.50
2018-11-22T02:57:14.023Z,3.50
2018-11-22T02:59:54.668Z,3.50
2018-11-22T03:02:36.017Z,3.40
2018-11-22T03:05:17.245Z,3.50
2018-11-22T03:07:58.256Z,3.50
2018-11-22T03:10:39.351Z,3.40
2018-11-22T03:13:20.278Z,3.50
2018-11-22T03:16:01.434Z,3.50
2018-11-22T03:18:42.777Z,3.50
2018-11-22T03:21:23.965Z,3.40
2018-11-22T03:24:05.261Z,3.50
2018-11-22T03:26:46.386Z,3.50
2018-11-22T03:29:27.118Z,3.50
2018-11-22T03:32:08.078Z,3.50
2018-11-22T03:34:48.951Z,3.50
2018-11-22T03:37:30.331Z,3.50
2018-11-22T03:40:16.148Z,3.50
2018-11-22T03:42:57.590Z,3.50
2018-11-22T03:45:38.277Z,3.50
2018-11-22T03:48:18.924Z,3.50
2018-11-22T03:51:00.312Z,3.40
2018-11-22T03:53:41.651Z,3.50
2018-11-22T03:56:22.761Z,3.50
2018-11-22T03:59:03.928Z,3.50
2018-11-22T04:01:45.052Z,3.60
2018-11-22T04:04:26.161Z,3.60
2018-11-22T04:07:07.358Z,3.60
2018-11-22T04:09:48.423Z,3.60
2018-11-22T04:12:29.772Z,3.60
2018-11-22T04:15:10.164Z,3.60
2018-11-22T04:17:58.607Z,3.60
2018-11-22T04:20:47.049Z,3.60
2018-11-22T04:23:35.501Z,3.50
2018-11-22T04:26:24.177Z,3.50
2018-11-22T04:29:12.373Z,3.60
2018-11-22T04:32:00.818Z,3.60
2018-11-22T04:34:49.256Z,3.60
2018-11-22T04:37:37.712Z,3.70
2018-11-22T04:40:27.679Z,3.70
2018-11-22T04:43:16.109Z,3.70
2018-11-22T04:46:04.553Z,3.60
2018-11-22T04:48:52.983Z,3.60
2018-11-22T04:51:41.451Z,3.60
2018-11-22T04:54:29.885Z,3.60
2018-11-22T04:57:18.326Z,3.60
2018-11-22T05:00:26.507Z,3.70
2018-11-22T05:03:14.968Z,3.70
2018-11-22T05:06:03.417Z,3.70
2018-11-22T05:08:51.848Z,3.70
2018-11-22T05:11:40.298Z,3.60
2018-11-22T05:14:28.734Z,3.50
2018-11-22T05:17:17.232Z,3.50
2018-11-22T05:20:05.994Z,3.50
2018-11-22T05:22:54.867Z,3.50
2018-11-22T05:25:43.312Z,3.50
2018-11-22T05:28:31.754Z,3.60
2018-11-22T05:31:20.219Z,3.60
2018-11-22T05:34:08.980Z,3.70
2018-11-22T05:36:57.415Z,3.60
2018-11-22T05:39:46.184Z,3.60
2018-11-22T05:42:34.638Z,3.60
2018-11-22T05:45:41.848Z,3.60
2018-11-22T05:48:30.276Z,3.60
2018-11-22T05:51:18.970Z,3.60
2018-11-22T05:54:07.403Z,3.60
2018-11-22T05:56:55.901Z,3.60
2018-11-22T05:59:44.297Z,3.60
2018-11-22T06:02:32.747Z,3.60
2018-11-22T06:05:22.693Z,3.60
2018-11-22T06:08:11.165Z,3.60
2018-11-22T06:10:59.623Z,3.70
2018-11-22T06:13:48.085Z,3.70
2018-11-22T06:16:38.115Z,3.70
2018-11-22T06:19:25.299Z,3.70
2018-11-22T06:22:13.748Z,3.70
2018-11-22T06:25:03.757Z,3.50
2018-11-22T06:27:51.104Z,3.40
2018-11-22T06:30:39.528Z,3.40
2018-11-22T06:33:27.969Z,3.50
2018-11-22T06:36:16.679Z,3.50
2018-11-22T06:39:07.126Z,3.50
2018-11-22T06:41:55.581Z,3.60
2018-11-22T06:44:44.008Z,3.60
2018-11-22T06:47:32.490Z,3.60
2018-11-22T06:50:13.919Z,3.60
2018-11-22T06:52:55.166Z,3.70
2018-11-22T06:55:36.512Z,3.60
2018-11-22T06:58:17.673Z,3.70
2018-11-22T07:00:58.757Z,3.70
2018-11-22T07:03:39.624Z,3.70
2018-11-22T07:06:20.967Z,3.70
2018-11-22T07:09:02.259Z,3.70
2018-11-22T07:11:43.203Z,3.70
2018-11-22T07:14:24.473Z,3.80
2018-11-22T07:17:06.499Z,3.70
2018-11-22T07:19:45.940Z,3.70
2018-11-22T07:22:34.393Z,3.70
2018-11-22T07:25:23.322Z,3.70
2018-11-22T07:28:11.770Z,3.80
2018-11-22T07:31:00.543Z,3.80
2018-11-22T07:36:43.290Z,4.00
2018-11-22T07:39:31.724Z,4.10
2018-11-22T07:42:20.181Z,4.00
2018-11-22T07:45:09.803Z,3.90
2018-11-22T07:47:59.288Z,3.90
2018-11-22T07:50:47.868Z,3.90
2018-11-22T07:53:36.383Z,4.00
2018-11-22T07:56:24.905Z,4.00
2018-11-22T07:59:13.452Z,4.00
2018-11-22T08:02:01.991Z,3.90
2018-11-22T08:04:50.431Z,3.90
2018-11-22T08:07:38.877Z,3.80
2018-11-22T08:10:27.609Z,3.90
2018-11-22T08:13:16.068Z,3.70
2018-11-22T08:16:04.511Z,3.70
2018-11-22T08:18:52.974Z,3.60
2018-11-22T08:21:41.405Z,3.80
2018-11-22T08:24:29.854Z,3.80
2018-11-22T08:27:20.674Z,3.90
2018-11-22T08:30:10.232Z,3.90
2018-11-22T08:32:58.452Z,3.90
2018-11-22T08:35:46.876Z,3.90
2018-11-22T08:38:35.327Z,3.90
2018-11-22T08:41:23.779Z,4.10
2018-11-22T08:44:12.230Z,4.10
2018-11-22T08:47:00.922Z,4.10
2018-11-22T08:49:49.452Z,4.20
2018-11-22T08:52:37.909Z,4.30
2018-11-22T08:55:26.368Z,4.20
2018-11-22T08:58:14.813Z,4.30
2018-11-22T09:01:03.254Z,4.10
2018-11-22T09:03:51.697Z,4.10
2018-11-22T09:06:40.142Z,4.20
2018-11-22T09:09:28.608Z,4.20
2018-11-22T09:12:17.045Z,4.10
2018-11-22T09:15:06.031Z,4.10
2018-11-22T09:17:54.476Z,4.00
2018-11-22T09:20:42.915Z,4.20
2018-11-22T09:23:31.385Z,4.20
2018-11-22T09:26:19.815Z,4.10
2018-11-22T09:29:08.265Z,4.20
2018-11-22T09:31:56.715Z,4.20
2018-11-22T09:34:45.384Z,4.20
2018-11-22T09:37:34.081Z,4.20
2018-11-22T09:40:23.975Z,4.40
2018-11-22T09:43:12.424Z,4.50
2018-11-22T09:46:00.861Z,4.60
2018-11-22T09:48:49.326Z,4.70
2018-11-22T09:51:37.745Z,4.60
2018-11-22T09:54:26.226Z,4.80
2018-11-22T09:57:14.992Z,4.70
2018-11-22T10:00:03.433Z,4.70
2018-11-22T10:02:51.943Z,4.80
2018-11-22T10:05:40.410Z,4.90
2018-11-22T10:08:28.907Z,4.90
2018-11-22T10:11:17.250Z,5.00
2018-11-22T10:14:05.696Z,5.00
2018-11-22T10:16:54.154Z,5.10
2018-11-22T10:19:42.588Z,5.30
2018-11-22T10:22:31.182Z,5.40
2018-11-22T10:25:19.962Z,5.40
2018-11-22T10:28:08.724Z,5.50
2018-11-22T10:30:57.420Z,5.60
2018-11-22T10:33:45.868Z,5.90
2018-11-22T10:36:34.318Z,5.90
2018-11-22T10:39:22.760Z,6.10
2018-11-22T10:42:11.190Z,6.20
2018-11-22T10:44:59.642Z,6.30
2018-11-22T10:47:49.476Z,6.50
2018-11-22T10:50:38.257Z,6.50
2018-11-22T10:53:26.699Z,6.50
2018-11-22T10:56:15.148Z,7.00
2018-11-22T10:59:03.891Z,7.30
2018-11-22T11:02:11.112Z,7.30
2018-11-22T11:05:18.316Z,7.80
2018-11-22T11:08:25.799Z,7.70
2018-11-22T11:11:14.250Z,7.80
2018-11-22T11:14:02.741Z,7.80
2018-11-22T11:16:51.172Z,7.90
2018-11-22T11:19:39.616Z,7.80
2018-11-22T11:22:28.054Z,8.10
2018-11-22T11:25:16.497Z,8.40
2018-11-22T11:28:04.944Z,8.30
2018-11-22T11:30:53.413Z,8.00
2018-11-22T11:33:41.846Z,8.10
2018-11-22T11:36:30.292Z,8.40
2018-11-22T11:39:18.756Z,8.50
2018-11-22T11:42:07.225Z,8.50
2018-11-22T11:44:55.662Z,8.60
2018-11-22T11:47:44.141Z,8.80
2018-11-22T11:50:32.588Z,8.70
2018-11-22T11:53:25.137Z,8.80
2018-11-22T11:56:09.495Z,9.30
2018-11-22T11:58:57.934Z,9.80
2018-11-22T12:01:46.377Z,9.90
2018-11-22T12:04:34.828Z,10.10
2018-11-22T12:07:23.260Z,9.70
2018-11-22T12:10:22.596Z,9.70
2018-11-22T12:13:11.032Z,9.60
2018-11-22T12:15:59.480Z,9.60
2018-11-22T12:18:47.912Z,9.60
2018-11-22T12:21:36.379Z,9.70
2018-11-22T12:24:24.849Z,9.50
2018-11-22T12:27:13.306Z,9.50
2018-11-22T12:30:01.753Z,9.40
2018-11-22T12:33:08.977Z,9.20
2018-11-22T12:36:16.180Z,9.30
2018-11-22T12:39:05.041Z,9.50
2018-11-22T12:41:53.509Z,9.70
2018-11-22T12:44:41.953Z,9.40
2018-11-22T12:47:30.998Z,9.20
2018-11-22T12:50:19.441Z,9.10
2018-11-22T12:53:07.871Z,8.80
2018-11-22T12:55:56.348Z,8.70
2018-11-22T12:58:44.789Z,8.50
2018-11-22T13:01:33.240Z,8.70
2018-11-22T13:04:21.847Z,8.60
2018-11-22T13:07:10.296Z,8.50
2018-11-22T13:09:58.762Z,8.50
2018-11-22T13:13:06.075Z,8.60
2018-11-22T13:15:54.684Z,8.60
2018-11-22T13:18:43.132Z,8.40
2018-11-22T13:21:31.650Z,8.40
2018-11-22T13:24:20.089Z,8.30
2018-11-22T13:27:08.533Z,8.30
2018-11-22T13:29:57.067Z,8.20
2018-11-22T13:32:46.357Z,8.10
2018-11-22T13:35:35.327Z,8.10
2018-11-22T13:38:23.797Z,8.00
2018-11-22T13:41:12.246Z,8.00
2018-11-22T13:44:00.681Z,8.00
2018-11-22T13:46:49.150Z,8.00
2018-11-22T13:49:37.584Z,7.80
2018-11-22T13:52:26.033Z,7.70
2018-11-22T13:55:14.836Z,7.70
2018-11-22T13:58:03.296Z,7.80
2018-11-22T14:00:51.750Z,7.80
2018-11-22T14:03:40.199Z,7.80
2018-11-22T14:06:28.687Z,7.90
2018-11-22T14:09:17.124Z,7.90
2018-11-22T14:12:05.573Z,8.00
2018-11-22T14:14:54.023Z,7.90
2018-11-22T14:17:42.737Z,7.90
2018-11-22T14:20:32.612Z,7.90
2018-11-22T14:23:21.051Z,7.80
2018-11-22T14:26:09.485Z,7.80
2018-11-22T14:28:57.955Z,7.80
2018-11-22T14:31:46.404Z,7.80
2018-11-22T14:34:35.058Z,7.90
2018-11-22T14:37:23.525Z,7.90
2018-11-22T14:40:31.156Z,7.90
2018-11-22T14:43:19.628Z,7.90
2018-11-22T14:46:08.060Z,7.80
2018-11-22T14:48:56.510Z,7.70
2018-11-22T14:51:48.780Z,7.70
2018-11-22T14:54:37.240Z,7.60
2018-11-22T14:57:25.735Z,7.50
2018-11-22T15:00:15.279Z,7.40
2018-11-22T15:03:03.737Z,7.30
2018-11-22T15:05:52.176Z,7.30
2018-11-22T15:08:40.632Z,7.20
2018-11-22T15:11:29.086Z,7.00
2018-11-22T15:14:17.555Z,7.00
2018-11-22T15:17:06.018Z,6.90
2018-11-22T15:19:54.459Z,6.80
2018-11-22T15:22:43.564Z,6.70
2018-11-22T15:25:32.204Z,6.60
2018-11-22T15:28:21.219Z,6.50
2018-11-22T15:31:09.663Z,6.50
2018-11-22T15:33:58.123Z,6.40
2018-11-22T15:36:46.560Z,6.30
2018-11-22T15:39:35.012Z,6.30
2018-11-22T15:42:23.479Z,6.20
2018-11-22T15:45:13.592Z,6.20
2018-11-22T15:48:02.050Z,6.10
2018-11-22T15:50:50.489Z,6.00
2018-11-22T15:53:38.959Z,5.90
2018-11-22T15:56:27.402Z,5.90
2018-11-22T15:59:15.889Z,5.80
2018-11-22T16:02:04.335Z,5.70
2018-11-22T16:04:52.795Z,5.70
2018-11-22T16:07:41.806Z,5.60
2018-11-22T16:10:31.891Z,5.60
2018-11-22T16:19:34.664Z,5.30
2018-11-22T16:22:23.124Z,5.30
2018-11-22T16:25:12.668Z,5.20
2018-11-22T16:28:01.134Z,5.20
2018-11-22T16:30:49.566Z,5.20
2018-11-22T16:33:38.048Z,5.20
2018-11-22T16:36:26.461Z,5.20
2018-11-22T16:39:15.234Z,5.20
2018-11-22T16:42:03.663Z,5.20
2018-11-22T16:44:52.111Z,5.20
2018-11-22T16:47:40.555Z,5.20
2018-11-22T16:50:30.033Z,5.30
2018-11-22T16:53:18.509Z,5.20
2018-11-22T16:56:07.339Z,5.20
2018-11-22T16:58:55.957Z,5.20
2018-11-22T17:01:44.399Z,5.10
2018-11-22T17:04:32.983Z,5.00
2018-11-22T17:07:21.417Z,5.00
2018-11-22T17:10:11.150Z,4.80
2018-11-22T17:13:00.694Z,4.80
2018-11-22T17:15:49.129Z,4.80
2018-11-22T17:18:37.570Z,4.90
2018-11-22T17:21:26.017Z,5.20
2018-11-22T17:24:14.484Z,5.00
2018-11-22T17:27:02.922Z,5.00
2018-11-22T17:29:51.693Z,4.90
2018-11-22T17:32:40.544Z,4.90
2018-11-22T17:35:23.546Z,4.80
2018-11-22T17:38:06.325Z,5.00
2018-11-22T17:40:48.277Z,4.90
2018-11-22T17:43:29.333Z,4.80
2018-11-22T17:46:10.381Z,4.80
2018-11-22T17:48:51.064Z,4.80
2018-11-22T17:51:32.051Z,4.90
2018-11-22T17:54:13.546Z,4.80
2018-11-22T17:56:54.817Z,4.70
2018-11-22T17:59:36.165Z,4.70
2018-11-22T18:02:16.922Z,4.80
2018-11-22T18:04:57.731Z,4.80
2018-11-22T18:07:38.966Z,4.80
2018-11-22T18:10:21.796Z,4.90
2018-11-22T18:13:02.944Z,4.90
2018-11-22T18:16:03.089Z,4.90
2018-11-22T18:18:44.159Z,4.90
2018-11-22T18:21:25.254Z,4.90
2018-11-22T18:24:06.509Z,4.90
2018-11-22T18:26:47.082Z,4.90
2018-11-22T18:29:28.437Z,5.00
2018-11-22T18:32:09.894Z,5.00
2018-11-22T18:34:50.875Z,5.00
2018-11-22T18:37:32.205Z,4.90
2018-11-22T18:40:14.365Z,4.90
2018-11-22T18:42:56.392Z,5.00
2018-11-22T18:45:39.205Z,4.90
2018-11-22T18:48:20.817Z,4.90
2018-11-22T18:51:01.905Z,4.90
2018-11-22T18:53:42.645Z,5.00
2018-11-22T18:56:23.971Z,5.00
2018-11-22T18:59:05.359Z,5.00
2018-11-22T19:01:46.645Z,5.00
2018-11-22T19:04:27.351Z,5.00
2018-11-22T19:07:08.415Z,5.00
2018-11-22T19:09:49.546Z,5.00
2018-11-22T19:12:30.350Z,5.00
2018-11-22T19:15:15.576Z,5.00
2018-11-22T19:17:56.736Z,5.00
2018-11-22T19:20:39.388Z,5.00
2018-11-22T19:23:19.151Z,5.10
2018-11-22T19:26:07.623Z,5.10
2018-11-22T19:28:56.067Z,5.10
2018-11-22T19:31:44.492Z,5.10
2018-11-22T19:34:32.930Z,5.00
2018-11-22T19:37:21.358Z,5.00
2018-11-22T19:40:15.049Z,5.10
2018-11-22T19:43:04.697Z,5.10
2018-11-22T19:45:53.138Z,5.10
2018-11-22T19:48:41.576Z,5.10
2018-11-22T19:51:30.045Z,5.00
2018-11-22T19:54:18.738Z,5.10
2018-11-22T19:57:07.244Z,5.10
2018-11-22T19:59:55.708Z,5.10
2018-11-22T20:02:44.928Z,5.10
2018-11-22T20:05:34.861Z,5.10
2018-11-22T20:08:23.301Z,5.00
2018-11-22T20:11:11.747Z,5.10
2018-11-22T20:14:00.200Z,5.10
2018-11-22T20:16:48.672Z,5.10
2018-11-22T20:19:37.166Z,5.10
2018-11-22T20:22:25.603Z,5.20
2018-11-22T20:25:14.038Z,5.20
2018-11-22T20:34:04.569Z,5.20
2018-11-22T20:36:53.117Z,5.20
2018-11-22T20:39:41.954Z,5.20
2018-11-22T20:42:30.392Z,5.20
2018-11-22T20:45:20.353Z,5.10
2018-11-22T20:48:09.020Z,5.00
2018-11-22T20:50:57.825Z,5.00
2018-11-22T20:53:46.422Z,5.10
2018-11-22T20:56:34.941Z,5.10
2018-11-22T20:59:23.562Z,5.00
2018-11-22T21:02:12.189Z,5.00
2018-11-22T21:05:00.759Z,5.00
2018-11-22T21:07:49.342Z,5.00
2018-11-22T21:10:38.059Z,5.10
2018-11-22T21:13:26.660Z,5.00
2018-11-22T21:16:15.127Z,5.00
2018-11-22T21:19:03.564Z,5.00
2018-11-22T21:21:51.998Z,5.00
2018-11-22T21:24:40.633Z,5.00
2018-11-22T21:27:29.069Z,5.00
2018-11-22T21:30:37.879Z,5.00
2018-11-22T21:33:26.654Z,5.00
2018-11-22T21:36:15.084Z,5.00
2018-11-22T21:39:03.662Z,5.00
2018-11-22T21:41:52.784Z,5.00
2018-11-22T21:44:41.237Z,5.00
2018-11-22T21:47:29.925Z,5.00
2018-11-22T21:50:19.452Z,5.00
2018-11-22T21:53:08.050Z,5.00
2018-11-22T21:55:57.837Z,5.00
2018-11-22T21:58:46.317Z,5.00
2018-11-22T22:01:35.209Z,5.00
2018-11-22T22:04:23.649Z,5.10
2018-11-22T22:07:12.179Z,5.00
2018-11-22T22:10:08.450Z,5.00
2018-11-22T22:12:56.907Z,5.00
2018-11-22T22:15:45.334Z,4.90
2018-11-22T22:18:33.777Z,5.00
2018-11-22T22:21:22.392Z,5.00
2018-11-22T22:24:10.845Z,4.90
2018-11-22T22:26:59.302Z,4.90
2018-11-22T22:29:47.733Z,4.80
2018-11-22T22:32:36.174Z,4.90
2018-11-22T22:35:24.601Z,4.80
2018-11-22T22:38:13.072Z,4.80
2018-11-22T22:41:01.510Z,4.80
2018-11-22T22:43:50.018Z,4.80
2018-11-22T22:46:38.436Z,4.80
2018-11-22T22:49:26.910Z,4.70
2018-11-22T22:52:15.364Z,4.70
2018-11-22T22:55:03.831Z,4.70
2018-11-22T22:57:52.561Z,4.70
2018-11-22T23:00:59.781Z,4.60
2018-11-22T23:03:48.299Z,4.70
2018-11-22T23:06:36.992Z,4.70
2018-11-22T23:09:25.425Z,4.60
2018-11-22T23:12:13.871Z,4.60
2018-11-22T23:15:02.304Z,4.60
2018-11-22T23:17:50.748Z,4.60
2018-11-22T23:20:39.201Z,4.60
2018-11-22T23:23:27.638Z,4.50
2018-11-22T23:26:16.080Z,4.40
2018-11-22T23:29:04.557Z,4.40
2018-11-22T23:31:52.975Z,4.30
2018-11-22T23:34:41.742Z,4.30
2018-11-22T23:37:30.173Z,4.20
2018-11-22T23:40:19.833Z,4.20
2018-11-22T23:43:08.270Z,4.20
2018-11-22T23:45:56.713Z,4.20
2018-11-22T23:48:45.134Z,4.30
2018-11-22T23:51:33.590Z,4.30
2018-11-22T23:54:22.026Z,4.30
2018-11-22T23:57:10.470Z,4.30
2018-11-22T23:59:58.929Z,4.30
